sensor_id;sensor_type;location;lat;lon;timestamp;P1;durP1;ratioP1;P2;durP2;ratioP2
142;SDS011;63667;49.046;8.468;2024-02-21T00:01:42;21.40;;;9.70;;
142;SDS011;63667;49.046;8.468;2024-02-21T00:04:10;20.20;;;8.50;;
142;SDS011;63667;49.046;8.468;2024-02-21T00:06:39;21.50;;;7.90;;
142;SDS011;63667;49.046;8.468;2024-02-21T00:09:06;17.60;;;8.10;;
142;SDS011;63667;49.046;8.468;2024-02-21T00:11:35;19.10;;;7.67;;
142;SDS011;63667;49.046;8.468;2024-02-21T00:14:02;19.73;;;7.03;;
142;SDS011;63667;49.046;8.468;2024-02-21T00:16:30;22.17;;;8.13;;
142;SDS011;63667;49.046;8.468;2024-02-21T00:18:58;11.90;;;7.20;;
142;SDS011;63667;49.046;8.468;2024-02-21T00:21:26;17.13;;;7.13;;
142;SDS011;63667;49.046;8.468;2024-02-21T00:23:53;24.07;;;7.37;;
142;SDS011;63667;49.046;8.468;2024-02-21T00:26:21;17.67;;;7.67;;
142;SDS011;63667;49.046;8.468;2024-02-21T00:28:49;23.57;;;7.10;;
142;SDS011;63667;49.046;8.468;2024-02-21T00:31:16;17.30;;;6.60;;
142;SDS011;63667;49.046;8.468;2024-02-21T00:33:44;22.83;;;7.20;;
142;SDS011;63667;49.046;8.468;2024-02-21T00:36:11;16.60;;;7.13;;
142;SDS011;63667;49.046;8.468;2024-02-21T00:38:40;16.63;;;7.40;;
142;SDS011;63667;49.046;8.468;2024-02-21T00:41:07;15.00;;;6.20;;
142;SDS011;63667;49.046;8.468;2024-02-21T00:43:33;23.13;;;6.77;;
142;SDS011;63667;49.046;8.468;2024-02-21T00:46:01;24.90;;;7.27;;
142;SDS011;63667;49.046;8.468;2024-02-21T00:48:29;17.00;;;6.60;;
142;SDS011;63667;49.046;8.468;2024-02-21T00:50:56;15.77;;;6.37;;
142;SDS011;63667;49.046;8.468;2024-02-21T00:53:24;15.97;;;6.40;;
142;SDS011;63667;49.046;8.468;2024-02-21T00:55:51;16.83;;;7.50;;
142;SDS011;63667;49.046;8.468;2024-02-21T00:58:19;14.03;;;6.10;;
142;SDS011;63667;49.046;8.468;2024-02-21T01:00:47;12.20;;;6.07;;
142;SDS011;63667;49.046;8.468;2024-02-21T01:03:15;17.80;;;6.77;;
142;SDS011;63667;49.046;8.468;2024-02-21T01:05:42;13.90;;;6.70;;
142;SDS011;63667;49.046;8.468;2024-02-21T01:08:10;17.00;;;6.97;;
142;SDS011;63667;49.046;8.468;2024-02-21T01:10:38;19.67;;;7.10;;
142;SDS011;63667;49.046;8.468;2024-02-21T01:13:06;19.33;;;6.80;;
142;SDS011;63667;49.046;8.468;2024-02-21T01:15:33;21.60;;;7.10;;
142;SDS011;63667;49.046;8.468;2024-02-21T01:18:01;21.03;;;7.10;;
142;SDS011;63667;49.046;8.468;2024-02-21T01:20:29;21.30;;;8.10;;
142;SDS011;63667;49.046;8.468;2024-02-21T01:22:56;21.90;;;7.30;;
142;SDS011;63667;49.046;8.468;2024-02-21T01:25:24;22.73;;;7.50;;
142;SDS011;63667;49.046;8.468;2024-02-21T01:27:51;21.73;;;7.53;;
142;SDS011;63667;49.046;8.468;2024-02-21T01:30:19;23.40;;;8.40;;
142;SDS011;63667;49.046;8.468;2024-02-21T01:32:46;15.93;;;7.80;;
142;SDS011;63667;49.046;8.468;2024-02-21T01:35:13;25.70;;;7.93;;
142;SDS011;63667;49.046;8.468;2024-02-21T01:37:41;23.17;;;8.00;;
142;SDS011;63667;49.046;8.468;2024-02-21T01:40:08;15.10;;;7.07;;
142;SDS011;63667;49.046;8.468;2024-02-21T01:42:38;16.23;;;7.77;;
142;SDS011;63667;49.046;8.468;2024-02-21T01:45:06;16.17;;;6.60;;
142;SDS011;63667;49.046;8.468;2024-02-21T01:47:36;17.57;;;6.90;;
142;SDS011;63667;49.046;8.468;2024-02-21T01:50:03;28.10;;;7.37;;
142;SDS011;63667;49.046;8.468;2024-02-21T01:52:33;19.30;;;7.53;;
142;SDS011;63667;49.046;8.468;2024-02-21T01:55:01;20.97;;;7.50;;
142;SDS011;63667;49.046;8.468;2024-02-21T01:57:30;19.50;;;7.00;;
142;SDS011;63667;49.046;8.468;2024-02-21T01:59:58;21.83;;;7.10;;
142;SDS011;63667;49.046;8.468;2024-02-21T02:02:26;22.37;;;6.53;;
142;SDS011;63667;49.046;8.468;2024-02-21T02:04:53;18.67;;;6.80;;
142;SDS011;63667;49.046;8.468;2024-02-21T02:07:21;20.83;;;7.00;;
142;SDS011;63667;49.046;8.468;2024-02-21T02:09:49;22.13;;;6.17;;
142;SDS011;63667;49.046;8.468;2024-02-21T02:12:17;19.93;;;6.10;;
142;SDS011;63667;49.046;8.468;2024-02-21T02:14:45;15.10;;;5.90;;
142;SDS011;63667;49.046;8.468;2024-02-21T02:17:12;17.10;;;5.70;;
142;SDS011;63667;49.046;8.468;2024-02-21T02:19:41;12.73;;;5.70;;
142;SDS011;63667;49.046;8.468;2024-02-21T02:22:14;20.90;;;6.77;;
142;SDS011;63667;49.046;8.468;2024-02-21T02:24:44;16.53;;;6.13;;
142;SDS011;63667;49.046;8.468;2024-02-21T02:27:11;18.13;;;6.10;;
142;SDS011;63667;49.046;8.468;2024-02-21T02:29:39;18.13;;;6.90;;
142;SDS011;63667;49.046;8.468;2024-02-21T02:32:07;13.93;;;5.63;;
142;SDS011;63667;49.046;8.468;2024-02-21T02:34:35;14.17;;;6.10;;
142;SDS011;63667;49.046;8.468;2024-02-21T02:37:03;13.43;;;6.40;;
142;SDS011;63667;49.046;8.468;2024-02-21T02:39:31;10.80;;;5.97;;
142;SDS011;63667;49.046;8.468;2024-02-21T02:41:59;20.30;;;7.23;;
142;SDS011;63667;49.046;8.468;2024-02-21T02:44:26;15.70;;;6.00;;
142;SDS011;63667;49.046;8.468;2024-02-21T02:46:53;12.90;;;6.00;;
142;SDS011;63667;49.046;8.468;2024-02-21T02:49:20;11.80;;;6.27;;
142;SDS011;63667;49.046;8.468;2024-02-21T02:51:49;18.97;;;6.70;;
142;SDS011;63667;49.046;8.468;2024-02-21T02:54:16;17.20;;;6.00;;
142;SDS011;63667;49.046;8.468;2024-02-21T02:56:45;18.93;;;6.37;;
142;SDS011;63667;49.046;8.468;2024-02-21T02:59:12;12.40;;;6.20;;
142;SDS011;63667;49.046;8.468;2024-02-21T03:01:40;24.30;;;7.80;;
142;SDS011;63667;49.046;8.468;2024-02-21T03:04:07;12.70;;;5.60;;
142;SDS011;63667;49.046;8.468;2024-02-21T03:06:34;16.33;;;6.07;;
142;SDS011;63667;49.046;8.468;2024-02-21T03:09:02;15.60;;;5.70;;
142;SDS011;63667;49.046;8.468;2024-02-21T03:11:35;12.93;;;5.50;;
142;SDS011;63667;49.046;8.468;2024-02-21T03:14:03;12.20;;;5.53;;
142;SDS011;63667;49.046;8.468;2024-02-21T03:16:31;22.00;;;6.73;;
142;SDS011;63667;49.046;8.468;2024-02-21T03:18:58;22.97;;;6.17;;
142;SDS011;63667;49.046;8.468;2024-02-21T03:21:26;19.37;;;6.40;;
142;SDS011;63667;49.046;8.468;2024-02-21T03:23:53;14.33;;;5.90;;
142;SDS011;63667;49.046;8.468;2024-02-21T03:26:19;20.00;;;6.70;;
142;SDS011;63667;49.046;8.468;2024-02-21T03:28:46;13.80;;;6.20;;
142;SDS011;63667;49.046;8.468;2024-02-21T03:31:14;18.13;;;6.33;;
142;SDS011;63667;49.046;8.468;2024-02-21T03:33:42;17.57;;;5.90;;
142;SDS011;63667;49.046;8.468;2024-02-21T03:36:13;12.47;;;6.10;;
142;SDS011;63667;49.046;8.468;2024-02-21T03:38:41;17.97;;;6.23;;
142;SDS011;63667;49.046;8.468;2024-02-21T03:41:08;19.67;;;7.50;;
142;SDS011;63667;49.046;8.468;2024-02-21T03:43:39;14.70;;;5.80;;
142;SDS011;63667;49.046;8.468;2024-02-21T03:46:06;12.00;;;5.80;;
142;SDS011;63667;49.046;8.468;2024-02-21T03:48:33;14.10;;;6.80;;
142;SDS011;63667;49.046;8.468;2024-02-21T03:51:00;16.53;;;6.40;;
142;SDS011;63667;49.046;8.468;2024-02-21T03:53:28;13.27;;;5.80;;
142;SDS011;63667;49.046;8.468;2024-02-21T03:55:55;20.07;;;7.33;;
142;SDS011;63667;49.046;8.468;2024-02-21T03:58:28;10.73;;;5.23;;
142;SDS011;63667;49.046;8.468;2024-02-21T04:00:56;11.63;;;6.00;;
142;SDS011;63667;49.046;8.468;2024-02-21T04:03:24;19.13;;;6.23;;
142;SDS011;63667;49.046;8.468;2024-02-21T04:05:52;13.03;;;5.60;;
142;SDS011;63667;49.046;8.468;2024-02-21T04:08:20;15.43;;;5.90;;
142;SDS011;63667;49.046;8.468;2024-02-21T04:10:47;18.20;;;6.30;;
142;SDS011;63667;49.046;8.468;2024-02-21T04:13:15;11.53;;;5.60;;
142;SDS011;63667;49.046;8.468;2024-02-21T04:15:42;14.20;;;5.83;;
142;SDS011;63667;49.046;8.468;2024-02-21T04:18:10;15.93;;;6.10;;
142;SDS011;63667;49.046;8.468;2024-02-21T04:20:37;16.97;;;6.30;;
142;SDS011;63667;49.046;8.468;2024-02-21T04:23:04;14.47;;;6.57;;
142;SDS011;63667;49.046;8.468;2024-02-21T04:25:31;17.67;;;7.03;;
142;SDS011;63667;49.046;8.468;2024-02-21T04:27:59;19.40;;;6.47;;
142;SDS011;63667;49.046;8.468;2024-02-21T04:30:27;16.67;;;6.23;;
142;SDS011;63667;49.046;8.468;2024-02-21T04:32:54;13.70;;;6.53;;
142;SDS011;63667;49.046;8.468;2024-02-21T04:35:22;12.00;;;6.37;;
142;SDS011;63667;49.046;8.468;2024-02-21T04:37:51;18.07;;;7.37;;
142;SDS011;63667;49.046;8.468;2024-02-21T04:40:18;14.63;;;6.10;;
142;SDS011;63667;49.046;8.468;2024-02-21T04:42:46;16.87;;;7.10;;
142;SDS011;63667;49.046;8.468;2024-02-21T04:45:14;19.93;;;6.53;;
142;SDS011;63667;49.046;8.468;2024-02-21T04:47:42;16.63;;;5.77;;
142;SDS011;63667;49.046;8.468;2024-02-21T04:50:10;18.70;;;6.23;;
142;SDS011;63667;49.046;8.468;2024-02-21T04:52:38;14.77;;;6.90;;
142;SDS011;63667;49.046;8.468;2024-02-21T04:55:06;18.00;;;6.80;;
142;SDS011;63667;49.046;8.468;2024-02-21T04:57:35;14.63;;;6.60;;
142;SDS011;63667;49.046;8.468;2024-02-21T05:00:01;12.43;;;5.83;;
142;SDS011;63667;49.046;8.468;2024-02-21T05:02:30;17.63;;;6.80;;
142;SDS011;63667;49.046;8.468;2024-02-21T05:04:58;15.93;;;6.63;;
142;SDS011;63667;49.046;8.468;2024-02-21T05:07:25;13.23;;;5.73;;
142;SDS011;63667;49.046;8.468;2024-02-21T05:09:53;16.13;;;6.13;;
142;SDS011;63667;49.046;8.468;2024-02-21T05:12:21;16.33;;;6.60;;
142;SDS011;63667;49.046;8.468;2024-02-21T05:14:48;24.20;;;7.40;;
142;SDS011;63667;49.046;8.468;2024-02-21T05:17:16;21.57;;;6.50;;
142;SDS011;63667;49.046;8.468;2024-02-21T05:19:44;12.27;;;6.43;;
142;SDS011;63667;49.046;8.468;2024-02-21T05:22:11;18.87;;;6.73;;
142;SDS011;63667;49.046;8.468;2024-02-21T05:24:39;13.40;;;7.03;;
142;SDS011;63667;49.046;8.468;2024-02-21T05:27:06;19.90;;;7.50;;
142;SDS011;63667;49.046;8.468;2024-02-21T05:29:34;18.80;;;7.07;;
142;SDS011;63667;49.046;8.468;2024-02-21T05:32:02;17.03;;;7.10;;
142;SDS011;63667;49.046;8.468;2024-02-21T05:34:32;30.30;;;8.13;;
142;SDS011;63667;49.046;8.468;2024-02-21T05:36:59;19.83;;;7.60;;
142;SDS011;63667;49.046;8.468;2024-02-21T05:39:28;16.90;;;7.50;;
142;SDS011;63667;49.046;8.468;2024-02-21T05:41:56;15.63;;;7.87;;
142;SDS011;63667;49.046;8.468;2024-02-21T05:44:23;26.40;;;8.23;;
142;SDS011;63667;49.046;8.468;2024-02-21T05:46:52;20.93;;;7.97;;
142;SDS011;63667;49.046;8.468;2024-02-21T05:49:20;33.70;;;8.33;;
142;SDS011;63667;49.046;8.468;2024-02-21T05:51:49;20.83;;;8.63;;
142;SDS011;63667;49.046;8.468;2024-02-21T05:54:17;22.40;;;7.77;;
142;SDS011;63667;49.046;8.468;2024-02-21T05:56:54;24.47;;;8.30;;
142;SDS011;63667;49.046;8.468;2024-02-21T05:59:21;19.03;;;8.00;;
142;SDS011;63667;49.046;8.468;2024-02-21T06:01:58;15.93;;;7.60;;
142;SDS011;63667;49.046;8.468;2024-02-21T06:04:36;28.80;;;8.83;;
142;SDS011;63667;49.046;8.468;2024-02-21T06:07:09;20.10;;;8.30;;
142;SDS011;63667;49.046;8.468;2024-02-21T06:09:39;32.30;;;8.13;;
142;SDS011;63667;49.046;8.468;2024-02-21T06:12:07;27.23;;;7.90;;
142;SDS011;63667;49.046;8.468;2024-02-21T06:14:35;19.87;;;8.23;;
142;SDS011;63667;49.046;8.468;2024-02-21T06:17:03;17.00;;;7.17;;
142;SDS011;63667;49.046;8.468;2024-02-21T06:19:32;26.50;;;7.70;;
142;SDS011;63667;49.046;8.468;2024-02-21T06:21:59;18.50;;;6.93;;
142;SDS011;63667;49.046;8.468;2024-02-21T06:24:27;19.73;;;7.00;;
142;SDS011;63667;49.046;8.468;2024-02-21T06:26:55;14.13;;;7.57;;
142;SDS011;63667;49.046;8.468;2024-02-21T06:29:24;14.17;;;7.40;;
142;SDS011;63667;49.046;8.468;2024-02-21T06:31:51;17.63;;;7.30;;
142;SDS011;63667;49.046;8.468;2024-02-21T06:34:18;16.90;;;7.00;;
142;SDS011;63667;49.046;8.468;2024-02-21T06:36:46;18.80;;;7.50;;
142;SDS011;63667;49.046;8.468;2024-02-21T06:39:13;20.90;;;6.90;;
142;SDS011;63667;49.046;8.468;2024-02-21T06:41:39;16.77;;;7.00;;
142;SDS011;63667;49.046;8.468;2024-02-21T06:44:06;18.50;;;8.40;;
142;SDS011;63667;49.046;8.468;2024-02-21T06:46:32;17.70;;;6.73;;
142;SDS011;63667;49.046;8.468;2024-02-21T06:49:00;16.03;;;6.77;;
142;SDS011;63667;49.046;8.468;2024-02-21T06:51:27;18.40;;;6.70;;
142;SDS011;63667;49.046;8.468;2024-02-21T06:53:53;19.00;;;6.80;;
142;SDS011;63667;49.046;8.468;2024-02-21T06:56:24;25.73;;;7.43;;
142;SDS011;63667;49.046;8.468;2024-02-21T06:58:54;11.87;;;6.27;;
142;SDS011;63667;49.046;8.468;2024-02-21T07:01:21;19.97;;;7.10;;
142;SDS011;63667;49.046;8.468;2024-02-21T07:03:48;19.70;;;6.77;;
142;SDS011;63667;49.046;8.468;2024-02-21T07:06:17;19.07;;;8.50;;
142;SDS011;63667;49.046;8.468;2024-02-21T07:08:43;22.10;;;7.70;;
142;SDS011;63667;49.046;8.468;2024-02-21T07:11:10;19.33;;;7.77;;
142;SDS011;63667;49.046;8.468;2024-02-21T07:13:38;21.20;;;8.80;;
142;SDS011;63667;49.046;8.468;2024-02-21T07:16:05;13.93;;;7.07;;
142;SDS011;63667;49.046;8.468;2024-02-21T07:18:32;19.60;;;7.23;;
142;SDS011;63667;49.046;8.468;2024-02-21T07:21:03;16.30;;;7.17;;
142;SDS011;63667;49.046;8.468;2024-02-21T07:23:30;16.07;;;6.30;;
142;SDS011;63667;49.046;8.468;2024-02-21T07:25:58;19.40;;;7.27;;
142;SDS011;63667;49.046;8.468;2024-02-21T07:28:26;22.47;;;6.67;;
142;SDS011;63667;49.046;8.468;2024-02-21T07:30:54;18.53;;;6.90;;
142;SDS011;63667;49.046;8.468;2024-02-21T07:33:21;16.17;;;6.93;;
142;SDS011;63667;49.046;8.468;2024-02-21T07:35:49;21.00;;;7.10;;
142;SDS011;63667;49.046;8.468;2024-02-21T07:38:17;14.27;;;6.43;;
142;SDS011;63667;49.046;8.468;2024-02-21T07:40:45;16.93;;;6.93;;
142;SDS011;63667;49.046;8.468;2024-02-21T07:43:14;16.43;;;7.30;;
142;SDS011;63667;49.046;8.468;2024-02-21T07:45:41;14.17;;;5.87;;
142;SDS011;63667;49.046;8.468;2024-02-21T07:48:09;20.57;;;6.27;;
142;SDS011;63667;49.046;8.468;2024-02-21T07:50:36;11.33;;;5.93;;
142;SDS011;63667;49.046;8.468;2024-02-21T07:53:03;15.57;;;6.00;;
142;SDS011;63667;49.046;8.468;2024-02-21T07:55:32;15.10;;;6.97;;
142;SDS011;63667;49.046;8.468;2024-02-21T07:58:00;20.30;;;7.50;;
142;SDS011;63667;49.046;8.468;2024-02-21T08:00:28;15.93;;;6.73;;
142;SDS011;63667;49.046;8.468;2024-02-21T08:02:56;20.07;;;7.10;;
142;SDS011;63667;49.046;8.468;2024-02-21T08:05:24;15.07;;;6.60;;
142;SDS011;63667;49.046;8.468;2024-02-21T08:07:51;21.40;;;7.13;;
142;SDS011;63667;49.046;8.468;2024-02-21T08:10:19;17.23;;;6.50;;
142;SDS011;63667;49.046;8.468;2024-02-21T08:12:47;10.67;;;6.03;;
142;SDS011;63667;49.046;8.468;2024-02-21T08:15:14;14.33;;;6.60;;
142;SDS011;63667;49.046;8.468;2024-02-21T08:17:42;18.83;;;6.70;;
142;SDS011;63667;49.046;8.468;2024-02-21T08:20:09;14.40;;;6.10;;
142;SDS011;63667;49.046;8.468;2024-02-21T08:22:39;14.50;;;6.30;;
142;SDS011;63667;49.046;8.468;2024-02-21T08:25:07;16.27;;;7.03;;
142;SDS011;63667;49.046;8.468;2024-02-21T08:27:35;18.73;;;6.20;;
142;SDS011;63667;49.046;8.468;2024-02-21T08:30:03;13.30;;;6.13;;
142;SDS011;63667;49.046;8.468;2024-02-21T08:32:33;13.30;;;6.40;;
142;SDS011;63667;49.046;8.468;2024-02-21T08:35:02;15.17;;;6.80;;
142;SDS011;63667;49.046;8.468;2024-02-21T08:37:31;15.33;;;6.50;;
142;SDS011;63667;49.046;8.468;2024-02-21T08:39:58;12.37;;;6.70;;
142;SDS011;63667;49.046;8.468;2024-02-21T08:42:38;11.27;;;5.53;;
142;SDS011;63667;49.046;8.468;2024-02-21T08:45:06;11.93;;;6.20;;
142;SDS011;63667;49.046;8.468;2024-02-21T08:47:34;18.40;;;5.80;;
142;SDS011;63667;49.046;8.468;2024-02-21T08:50:02;20.27;;;5.67;;
142;SDS011;63667;49.046;8.468;2024-02-21T08:52:29;18.50;;;6.20;;
142;SDS011;63667;49.046;8.468;2024-02-21T08:54:57;13.90;;;6.13;;
142;SDS011;63667;49.046;8.468;2024-02-21T08:57:25;13.13;;;5.73;;
142;SDS011;63667;49.046;8.468;2024-02-21T08:59:52;9.87;;;5.87;;
142;SDS011;63667;49.046;8.468;2024-02-21T09:02:19;13.73;;;6.80;;
142;SDS011;63667;49.046;8.468;2024-02-21T09:04:47;22.00;;;6.73;;
142;SDS011;63667;49.046;8.468;2024-02-21T09:07:15;18.97;;;6.40;;
142;SDS011;63667;49.046;8.468;2024-02-21T09:09:42;11.60;;;5.43;;
142;SDS011;63667;49.046;8.468;2024-02-21T09:12:09;15.73;;;5.73;;
142;SDS011;63667;49.046;8.468;2024-02-21T09:14:37;16.63;;;6.33;;
142;SDS011;63667;49.046;8.468;2024-02-21T09:17:05;14.90;;;5.80;;
142;SDS011;63667;49.046;8.468;2024-02-21T09:19:33;16.53;;;5.67;;
142;SDS011;63667;49.046;8.468;2024-02-21T09:22:01;11.20;;;5.63;;
142;SDS011;63667;49.046;8.468;2024-02-21T09:24:29;13.63;;;5.60;;
142;SDS011;63667;49.046;8.468;2024-02-21T09:26:57;10.83;;;5.53;;
142;SDS011;63667;49.046;8.468;2024-02-21T09:29:26;16.13;;;5.47;;
142;SDS011;63667;49.046;8.468;2024-02-21T09:31:54;14.50;;;6.10;;
142;SDS011;63667;49.046;8.468;2024-02-21T09:34:21;13.27;;;4.97;;
142;SDS011;63667;49.046;8.468;2024-02-21T09:36:49;14.00;;;5.47;;
142;SDS011;63667;49.046;8.468;2024-02-21T09:39:17;12.50;;;5.13;;
142;SDS011;63667;49.046;8.468;2024-02-21T09:41:59;13.67;;;5.50;;
142;SDS011;63667;49.046;8.468;2024-02-21T09:44:28;12.57;;;5.83;;
142;SDS011;63667;49.046;8.468;2024-02-21T09:47:02;12.13;;;5.20;;
142;SDS011;63667;49.046;8.468;2024-02-21T09:49:45;14.80;;;5.87;;
142;SDS011;63667;49.046;8.468;2024-02-21T09:52:13;10.47;;;5.43;;
142;SDS011;63667;49.046;8.468;2024-02-21T09:54:43;12.47;;;5.00;;
142;SDS011;63667;49.046;8.468;2024-02-21T09:57:10;10.73;;;4.87;;
142;SDS011;63667;49.046;8.468;2024-02-21T09:59:41;15.50;;;5.10;;
142;SDS011;63667;49.046;8.468;2024-02-21T10:02:26;19.93;;;5.37;;
142;SDS011;63667;49.046;8.468;2024-02-21T10:04:53;9.70;;;4.63;;
142;SDS011;63667;49.046;8.468;2024-02-21T10:07:21;10.43;;;5.40;;
142;SDS011;63667;49.046;8.468;2024-02-21T10:10:03;12.43;;;6.07;;
142;SDS011;63667;49.046;8.468;2024-02-21T10:12:31;18.10;;;5.50;;
142;SDS011;63667;49.046;8.468;2024-02-21T10:15:02;7.57;;;4.70;;
142;SDS011;63667;49.046;8.468;2024-02-21T10:17:30;10.70;;;4.70;;
142;SDS011;63667;49.046;8.468;2024-02-21T10:20:06;17.27;;;4.87;;
142;SDS011;63667;49.046;8.468;2024-02-21T10:22:34;17.40;;;5.43;;
142;SDS011;63667;49.046;8.468;2024-02-21T10:25:11;17.17;;;5.03;;
142;SDS011;63667;49.046;8.468;2024-02-21T10:27:39;11.63;;;4.73;;
142;SDS011;63667;49.046;8.468;2024-02-21T10:30:07;13.30;;;4.97;;
142;SDS011;63667;49.046;8.468;2024-02-21T10:32:36;19.97;;;5.00;;
142;SDS011;63667;49.046;8.468;2024-02-21T10:35:04;10.70;;;4.73;;
142;SDS011;63667;49.046;8.468;2024-02-21T10:37:34;8.10;;;4.77;;
142;SDS011;63667;49.046;8.468;2024-02-21T10:40:02;14.30;;;5.07;;
142;SDS011;63667;49.046;8.468;2024-02-21T10:42:31;10.80;;;4.93;;
142;SDS011;63667;49.046;8.468;2024-02-21T10:45:01;11.50;;;4.87;;
142;SDS011;63667;49.046;8.468;2024-02-21T10:47:30;10.00;;;4.60;;
142;SDS011;63667;49.046;8.468;2024-02-21T10:50:01;7.87;;;4.63;;
142;SDS011;63667;49.046;8.468;2024-02-21T10:52:37;9.47;;;4.37;;
142;SDS011;63667;49.046;8.468;2024-02-21T10:55:21;10.67;;;4.10;;
142;SDS011;63667;49.046;8.468;2024-02-21T10:57:53;10.20;;;4.30;;
142;SDS011;63667;49.046;8.468;2024-02-21T11:00:20;8.93;;;4.27;;
142;SDS011;63667;49.046;8.468;2024-02-21T11:02:50;8.63;;;4.10;;
142;SDS011;63667;49.046;8.468;2024-02-21T11:05:17;12.20;;;4.57;;
142;SDS011;63667;49.046;8.468;2024-02-21T11:07:44;11.97;;;4.13;;
142;SDS011;63667;49.046;8.468;2024-02-21T11:10:24;14.67;;;4.47;;
142;SDS011;63667;49.046;8.468;2024-02-21T11:12:53;11.07;;;4.23;;
142;SDS011;63667;49.046;8.468;2024-02-21T11:15:27;9.63;;;4.20;;
142;SDS011;63667;49.046;8.468;2024-02-21T11:17:55;10.70;;;3.97;;
142;SDS011;63667;49.046;8.468;2024-02-21T11:20:31;13.30;;;4.27;;
142;SDS011;63667;49.046;8.468;2024-02-21T11:23:00;16.50;;;4.30;;
142;SDS011;63667;49.046;8.468;2024-02-21T11:25:27;7.50;;;3.67;;
142;SDS011;63667;49.046;8.468;2024-02-21T11:28:00;14.87;;;4.83;;
142;SDS011;63667;49.046;8.468;2024-02-21T11:30:30;8.80;;;3.70;;
142;SDS011;63667;49.046;8.468;2024-02-21T11:33:01;6.47;;;3.73;;
142;SDS011;63667;49.046;8.468;2024-02-21T11:35:33;15.23;;;3.60;;
142;SDS011;63667;49.046;8.468;2024-02-21T11:38:17;9.03;;;3.50;;
142;SDS011;63667;49.046;8.468;2024-02-21T11:40:48;12.03;;;4.27;;
142;SDS011;63667;49.046;8.468;2024-02-21T11:43:16;8.40;;;3.93;;
142;SDS011;63667;49.046;8.468;2024-02-21T11:45:43;10.90;;;3.57;;
142;SDS011;63667;49.046;8.468;2024-02-21T11:48:10;13.03;;;4.70;;
142;SDS011;63667;49.046;8.468;2024-02-21T11:50:37;10.43;;;4.50;;
142;SDS011;63667;49.046;8.468;2024-02-21T11:53:06;10.23;;;4.83;;
142;SDS011;63667;49.046;8.468;2024-02-21T11:55:35;11.63;;;4.60;;
142;SDS011;63667;49.046;8.468;2024-02-21T11:58:03;9.63;;;4.77;;
142;SDS011;63667;49.046;8.468;2024-02-21T12:00:31;8.97;;;4.00;;
142;SDS011;63667;49.046;8.468;2024-02-21T12:03:00;10.73;;;3.70;;
142;SDS011;63667;49.046;8.468;2024-02-21T12:05:28;8.40;;;3.10;;
142;SDS011;63667;49.046;8.468;2024-02-21T12:07:56;8.70;;;3.50;;
142;SDS011;63667;49.046;8.468;2024-02-21T12:10:25;5.83;;;3.07;;
142;SDS011;63667;49.046;8.468;2024-02-21T12:12:53;4.27;;;3.33;;
142;SDS011;63667;49.046;8.468;2024-02-21T12:15:25;7.10;;;3.50;;
142;SDS011;63667;49.046;8.468;2024-02-21T12:17:52;10.70;;;4.07;;
142;SDS011;63667;49.046;8.468;2024-02-21T12:20:21;8.57;;;3.50;;
142;SDS011;63667;49.046;8.468;2024-02-21T12:22:49;16.90;;;3.80;;
142;SDS011;63667;49.046;8.468;2024-02-21T12:25:18;5.93;;;3.10;;
142;SDS011;63667;49.046;8.468;2024-02-21T12:27:48;10.83;;;3.67;;
142;SDS011;63667;49.046;8.468;2024-02-21T12:30:15;10.83;;;3.10;;
142;SDS011;63667;49.046;8.468;2024-02-21T12:32:44;9.40;;;3.37;;
142;SDS011;63667;49.046;8.468;2024-02-21T12:35:11;12.23;;;3.90;;
142;SDS011;63667;49.046;8.468;2024-02-21T12:37:40;9.07;;;3.83;;
142;SDS011;63667;49.046;8.468;2024-02-21T12:40:08;8.83;;;3.80;;
142;SDS011;63667;49.046;8.468;2024-02-21T12:42:36;8.63;;;3.80;;
142;SDS011;63667;49.046;8.468;2024-02-21T12:45:05;14.80;;;3.63;;
142;SDS011;63667;49.046;8.468;2024-02-21T12:47:33;6.53;;;3.40;;
142;SDS011;63667;49.046;8.468;2024-02-21T12:50:02;11.00;;;4.90;;
142;SDS011;63667;49.046;8.468;2024-02-21T12:52:32;23.77;;;6.23;;
142;SDS011;63667;49.046;8.468;2024-02-21T12:55:00;8.60;;;3.77;;
142;SDS011;63667;49.046;8.468;2024-02-21T12:57:34;10.17;;;4.47;;
142;SDS011;63667;49.046;8.468;2024-02-21T13:00:03;6.87;;;3.70;;
142;SDS011;63667;49.046;8.468;2024-02-21T13:02:35;8.13;;;3.63;;
142;SDS011;63667;49.046;8.468;2024-02-21T13:05:02;8.50;;;3.80;;
142;SDS011;63667;49.046;8.468;2024-02-21T13:07:31;10.13;;;4.40;;
142;SDS011;63667;49.046;8.468;2024-02-21T13:09:58;11.37;;;4.70;;
142;SDS011;63667;49.046;8.468;2024-02-21T13:12:26;13.10;;;5.40;;
142;SDS011;63667;49.046;8.468;2024-02-21T13:14:56;10.70;;;5.00;;
142;SDS011;63667;49.046;8.468;2024-02-21T13:17:24;15.60;;;6.00;;
142;SDS011;63667;49.046;8.468;2024-02-21T13:19:56;20.50;;;8.90;;
142;SDS011;63667;49.046;8.468;2024-02-21T13:22:23;11.70;;;4.03;;
142;SDS011;63667;49.046;8.468;2024-02-21T13:24:52;6.70;;;3.83;;
142;SDS011;63667;49.046;8.468;2024-02-21T13:27:20;6.83;;;4.07;;
142;SDS011;63667;49.046;8.468;2024-02-21T13:29:48;7.57;;;3.70;;
142;SDS011;63667;49.046;8.468;2024-02-21T13:32:16;11.17;;;4.10;;
142;SDS011;63667;49.046;8.468;2024-02-21T13:34:44;14.27;;;4.17;;
142;SDS011;63667;49.046;8.468;2024-02-21T13:37:12;9.73;;;3.50;;
142;SDS011;63667;49.046;8.468;2024-02-21T13:39:41;9.77;;;3.83;;
142;SDS011;63667;49.046;8.468;2024-02-21T13:42:09;9.77;;;3.93;;
142;SDS011;63667;49.046;8.468;2024-02-21T13:44:37;9.40;;;3.60;;
142;SDS011;63667;49.046;8.468;2024-02-21T13:47:04;8.83;;;3.70;;
142;SDS011;63667;49.046;8.468;2024-02-21T13:49:34;4.80;;;3.40;;
142;SDS011;63667;49.046;8.468;2024-02-21T13:52:01;9.30;;;3.80;;
142;SDS011;63667;49.046;8.468;2024-02-21T13:54:30;7.20;;;4.17;;
142;SDS011;63667;49.046;8.468;2024-02-21T13:56:58;10.43;;;4.57;;
142;SDS011;63667;49.046;8.468;2024-02-21T13:59:25;8.97;;;4.63;;
142;SDS011;63667;49.046;8.468;2024-02-21T14:01:52;11.63;;;3.67;;
142;SDS011;63667;49.046;8.468;2024-02-21T14:04:20;12.77;;;4.40;;
142;SDS011;63667;49.046;8.468;2024-02-21T14:06:48;14.03;;;4.90;;
142;SDS011;63667;49.046;8.468;2024-02-21T14:09:15;6.80;;;3.43;;
142;SDS011;63667;49.046;8.468;2024-02-21T14:11:44;9.53;;;3.87;;
142;SDS011;63667;49.046;8.468;2024-02-21T14:14:12;9.60;;;3.50;;
142;SDS011;63667;49.046;8.468;2024-02-21T14:16:41;5.70;;;4.00;;
142;SDS011;63667;49.046;8.468;2024-02-21T14:19:09;10.03;;;4.03;;
142;SDS011;63667;49.046;8.468;2024-02-21T14:21:37;6.80;;;3.03;;
142;SDS011;63667;49.046;8.468;2024-02-21T14:24:05;6.07;;;3.70;;
142;SDS011;63667;49.046;8.468;2024-02-21T14:26:32;11.50;;;3.93;;
142;SDS011;63667;49.046;8.468;2024-02-21T14:28:59;8.73;;;3.90;;
142;SDS011;63667;49.046;8.468;2024-02-21T14:31:30;10.80;;;4.47;;
142;SDS011;63667;49.046;8.468;2024-02-21T14:33:58;12.70;;;4.10;;
142;SDS011;63667;49.046;8.468;2024-02-21T14:36:26;13.27;;;3.60;;
142;SDS011;63667;49.046;8.468;2024-02-21T14:38:54;5.00;;;3.37;;
142;SDS011;63667;49.046;8.468;2024-02-21T14:41:23;9.40;;;3.80;;
142;SDS011;63667;49.046;8.468;2024-02-21T14:43:50;7.93;;;3.70;;
142;SDS011;63667;49.046;8.468;2024-02-21T14:46:19;6.47;;;3.70;;
142;SDS011;63667;49.046;8.468;2024-02-21T14:48:46;6.57;;;3.40;;
142;SDS011;63667;49.046;8.468;2024-02-21T14:51:14;10.43;;;3.90;;
142;SDS011;63667;49.046;8.468;2024-02-21T14:53:42;9.17;;;3.97;;
142;SDS011;63667;49.046;8.468;2024-02-21T14:56:13;9.47;;;3.70;;
142;SDS011;63667;49.046;8.468;2024-02-21T14:58:41;11.70;;;4.50;;
142;SDS011;63667;49.046;8.468;2024-02-21T15:01:08;10.10;;;4.67;;
142;SDS011;63667;49.046;8.468;2024-02-21T15:03:35;13.17;;;4.40;;
142;SDS011;63667;49.046;8.468;2024-02-21T15:06:02;13.43;;;3.90;;
142;SDS011;63667;49.046;8.468;2024-02-21T15:08:31;15.60;;;4.33;;
142;SDS011;63667;49.046;8.468;2024-02-21T15:10:58;11.53;;;3.83;;